createdAt,value
2022-11-23T00:03:15.862Z,96466.44
2022-11-23T00:08:17.432Z,96467.66
2022-11-23T00:13:19.073Z,96477.72
2022-11-23T00:18:20.656Z,96479.88
2022-11-23T00:23:22.231Z,96463.78
2022-11-23T00:28:23.825Z,96474.13
2022-11-23T00:33:25.427Z,96478.13
2022-11-23T00:38:28.615Z,96480.97
2022-11-23T00:43:30.814Z,96480.69
2022-11-23T00:48:32.813Z,96485.38
2022-11-23T00:53:35.335Z,96485.13
2022-11-23T00:58:38.812Z,96487.94
2022-11-23T01:03:43.002Z,96484.31
2022-11-23T01:08:52.789Z,96488.06
2022-11-23T01:13:54.849Z,96496.38
2022-11-23T01:18:58.576Z,96496.69
2022-11-23T01:24:00.648Z,96503.22
2022-11-23T01:29:02.345Z,96499.88
2022-11-23T01:34:04.654Z,96499.47
2022-11-23T01:39:08.463Z,96507.34
2022-11-23T01:44:26.453Z,96499.44
2022-11-23T01:49:34.362Z,96492.06
2022-11-23T01:54:46.350Z,96491.56
2022-11-23T01:59:48.886Z,96489.28
2022-11-23T02:04:54.063Z,96504.59
2022-11-23T02:09:55.849Z,96503.00
2022-11-23T02:14:57.482Z,96519.34
2022-11-23T02:20:07.557Z,96504.44
2022-11-23T02:25:19.706Z,96510.78
2022-11-23T02:30:21.355Z,96508.84
2022-11-23T02:35:23.126Z,96503.47
2022-11-23T02:40:35.125Z,96511.59
2022-11-23T02:45:44.138Z,96498.31
2022-11-23T02:50:46.524Z,96512.56
2022-11-23T02:55:48.159Z,96522.88
2022-11-23T03:00:49.856Z,96525.19
2022-11-23T03:05:54.606Z,96525.25
2022-11-23T03:10:56.303Z,96526.34
2022-11-23T03:15:59.068Z,96532.50
2022-11-23T03:21:06.142Z,96537.78
2022-11-23T03:26:12.715Z,96528.38
2022-11-23T03:31:23.049Z,96533.66
2022-11-23T03:36:24.977Z,96530.31
2022-11-23T03:41:26.674Z,96529.38
2022-11-23T03:46:28.639Z,96529.66
2022-11-23T03:51:30.452Z,96530.78
2022-11-23T03:56:32.276Z,96534.41
2022-11-23T04:01:33.974Z,96528.75
2022-11-23T04:06:39.646Z,96531.31
2022-11-23T04:12:09.023Z,96523.94
2022-11-23T04:17:12.765Z,96517.09
2022-11-23T04:22:14.573Z,96514.22
2022-11-23T04:27:17.693Z,96520.81
2022-11-23T04:32:19.350Z,96523.38
2022-11-23T04:37:21.826Z,96529.94
2022-11-23T04:42:24.304Z,96526.97
2022-11-23T04:47:33.080Z,96520.84
2022-11-23T04:52:38.800Z,96524.72
2022-11-23T04:57:46.756Z,96527.53
2022-11-23T05:02:48.321Z,96523.34
2022-11-23T05:07:55.402Z,96523.47
2022-11-23T05:13:00.224Z,96522.28
2022-11-23T05:18:06.803Z,96515.31
2022-11-23T05:23:10.821Z,96523.31
2022-11-23T05:28:39.783Z,96524.50
2022-11-23T05:33:43.272Z,96526.00
2022-11-23T05:38:45.090Z,96524.06
2022-11-23T05:43:53.407Z,96541.63
2022-11-23T05:49:00.186Z,96537.03
2022-11-23T05:54:06.587Z,96537.41
2022-11-23T06:04:37.118Z,96542.88
2022-11-23T06:09:42.165Z,96538.31
2022-11-23T06:14:46.485Z,96540.94
2022-11-23T06:19:51.004Z,96535.28
2022-11-23T06:24:53.211Z,96546.31
2022-11-23T06:30:15.885Z,96538.09
2022-11-23T06:35:18.642Z,96546.41
2022-11-23T06:40:20.785Z,96533.28
2022-11-23T06:45:22.703Z,96550.47
2022-11-23T06:50:27.613Z,96544.31
2022-11-23T06:55:30.675Z,96553.31
2022-11-23T07:00:33.956Z,96552.78
2022-11-23T07:05:39.095Z,96548.75
2022-11-23T07:10:41.631Z,96558.94
2022-11-23T07:15:45.432Z,96560.56
2022-11-23T07:20:47.310Z,96564.97
2022-11-23T07:25:49.307Z,96571.69
2022-11-23T07:30:52.383Z,96575.91
2022-11-23T07:35:55.978Z,96575.34
2022-11-23T07:40:59.069Z,96586.66
2022-11-23T07:46:18.433Z,96591.22
2022-11-23T07:51:20.298Z,96600.78
2022-11-23T07:56:22.197Z,96601.16
2022-11-23T08:01:24.073Z,96601.31
2022-11-23T08:06:25.915Z,96600.41
2022-11-23T08:11:27.816Z,96606.06
2022-11-23T08:16:30.888Z,96611.84
2022-11-23T08:21:32.679Z,96614.31
2022-11-23T08:26:34.715Z,96606.91
2022-11-23T08:31:36.569Z,96610.06
2022-11-23T08:36:38.440Z,96608.19
2022-11-23T08:41:41.084Z,96609.00
2022-11-23T08:46:42.924Z,96603.63
2022-11-23T08:51:49.834Z,96608.91
2022-11-23T08:56:52.312Z,96620.94
2022-11-23T09:01:54.285Z,96615.97
2022-11-23T09:06:56.105Z,96616.34
2022-11-23T09:11:58.083Z,96618.00
2022-11-23T09:17:01.500Z,96605.25
2022-11-23T09:22:03.419Z,96611.25
2022-11-23T09:27:05.318Z,96619.16
2022-11-23T09:32:07.188Z,96610.94
2022-11-23T09:37:09.158Z,96612.22
2022-11-23T09:42:16.918Z,96614.16
2022-11-23T09:47:33.890Z,96612.28
2022-11-23T09:52:38.573Z,96613.06
2022-11-23T09:57:44.336Z,96603.00
2022-11-23T10:02:46.546Z,96598.06
2022-11-23T10:08:14.452Z,96594.03
2022-11-23T10:13:38.332Z,96587.53
2022-11-23T10:19:24.932Z,96591.34
2022-11-23T10:24:33.970Z,96586.03
2022-11-23T10:29:37.920Z,96586.53
2022-11-23T10:34:45.694Z,96575.72
2022-11-23T10:39:47.609Z,96586.22
2022-11-23T10:44:51.558Z,96575.41
2022-11-23T10:49:58.692Z,96572.94
2022-11-23T10:55:06.770Z,96573.78
2022-11-23T11:00:15.333Z,96568.34
2022-11-23T11:05:46.285Z,96557.72
2022-11-23T11:10:50.265Z,96554.88
2022-11-23T11:16:04.469Z,96564.31
2022-11-23T11:21:21.033Z,96558.09
2022-11-23T11:26:25.331Z,96552.50
2022-11-23T11:31:30.024Z,96557.28
2022-11-23T11:36:44.246Z,96559.22
2022-11-23T11:41:49.309Z,96558.44
2022-11-23T11:47:05.054Z,96561.13
2022-11-23T11:52:22.300Z,96556.63
2022-11-23T11:58:02.363Z,96553.25
2022-11-23T12:03:25.272Z,96562.53
2022-11-23T12:08:47.750Z,96550.97
2022-11-23T12:13:50.095Z,96556.94
2022-11-23T12:19:06.730Z,96552.97
2022-11-23T12:24:25.047Z,96558.94
2022-11-23T12:29:39.972Z,96560.69
2022-11-23T12:35:05.929Z,96558.28
2022-11-23T12:40:31.540Z,96554.59
2022-11-23T12:45:53.111Z,96553.59
2022-11-23T12:51:30.662Z,96549.75
2022-11-23T12:57:17.177Z,96548.34
2022-11-23T13:02:57.572Z,96553.16
2022-11-23T13:08:39.763Z,96545.75
2022-11-23T13:14:03.293Z,96544.72
2022-11-23T13:19:26.645Z,96545.56
2022-11-23T13:24:40.539Z,96551.94
2022-11-23T13:30:08.852Z,96547.97
2022-11-23T13:35:16.530Z,96545.22
2022-11-23T13:40:29.788Z,96539.19
2022-11-23T13:45:36.783Z,96541.00
2022-11-23T13:50:47.862Z,96546.97
2022-11-23T13:55:52.482Z,96547.94
2022-11-23T14:00:57.209Z,96541.56
2022-11-23T14:06:04.532Z,96545.50
2022-11-23T14:11:21.150Z,96542.84
2022-11-23T14:16:54.116Z,96548.13
2022-11-23T14:22:12.779Z,96552.06
2022-11-23T14:27:47.088Z,96549.44
2022-11-23T14:33:15.172Z,96554.47
2022-11-23T14:38:20.018Z,96559.31
2022-11-23T14:43:22.565Z,96562.91
2022-11-23T14:48:35.560Z,96565.81
2022-11-23T14:53:55.928Z,96575.81
2022-11-23T14:59:19.158Z,96570.88
2022-11-23T15:04:25.327Z,96575.38
2022-11-23T15:09:42.223Z,96573.78
2022-11-23T15:14:44.113Z,96571.00
2022-11-23T15:20:01.922Z,96581.19
2022-11-23T15:25:10.143Z,96580.53
2022-11-23T15:30:27.193Z,96577.94
2022-11-23T15:35:33.269Z,96574.88
2022-11-23T15:40:37.404Z,96574.88
2022-11-23T15:45:41.965Z,96593.22
2022-11-23T15:50:56.068Z,96595.16
2022-11-23T15:56:04.931Z,96590.84
2022-11-23T16:01:12.417Z,96594.69
2022-11-23T16:06:15.887Z,96592.78
2022-11-23T16:11:23.505Z,96597.13
2022-11-23T16:16:25.221Z,96595.66
2022-11-23T16:21:26.960Z,96592.75
2022-11-23T16:26:33.568Z,96600.41
2022-11-23T16:31:43.145Z,96602.59
2022-11-23T16:36:45.476Z,96603.28
2022-11-23T16:41:47.122Z,96608.06
2022-11-23T16:46:48.867Z,96610.09
2022-11-23T16:51:56.940Z,96614.78
2022-11-23T16:56:59.181Z,96611.66
2022-11-23T17:02:01.186Z,96614.66
2022-11-23T17:07:02.794Z,96623.66
2022-11-23T17:12:07.785Z,96622.44
2022-11-23T17:17:21.543Z,96623.41
2022-11-23T17:22:23.147Z,96606.50
2022-11-23T17:27:25.524Z,96611.66
2022-11-23T17:32:27.914Z,96618.13
2022-11-23T17:37:29.532Z,96608.56
2022-11-23T17:42:31.118Z,96608.34
2022-11-23T17:47:32.936Z,96607.41
2022-11-23T17:52:34.555Z,96616.78
2022-11-23T17:57:36.156Z,96603.84
2022-11-23T18:02:37.765Z,96608.84
2022-11-23T18:07:41.514Z,96619.94
2022-11-23T18:12:44.658Z,96620.59
2022-11-23T18:17:46.506Z,96617.28
2022-11-23T18:22:48.112Z,96622.06
2022-11-23T18:27:49.706Z,96628.78
2022-11-23T18:32:51.323Z,96629.34
2022-11-23T18:37:52.990Z,96633.94
2022-11-23T18:42:54.545Z,96637.16
2022-11-23T18:47:56.171Z,96635.44
2022-11-23T18:52:57.729Z,96643.78
2022-11-23T18:57:59.514Z,96642.72
2022-11-23T19:03:02.515Z,96631.97
2022-11-23T19:08:06.754Z,96648.34
2022-11-23T19:13:08.417Z,96641.38
2022-11-23T19:18:10.159Z,96651.41
2022-11-23T19:23:11.849Z,96662.97
2022-11-23T19:28:13.407Z,96663.78
2022-11-23T19:33:15.634Z,96662.56
2022-11-23T19:38:17.812Z,96672.88
2022-11-23T19:43:19.364Z,96670.09
2022-11-23T19:48:22.581Z,96688.09
2022-11-23T19:53:29.252Z,96684.97
2022-11-23T19:58:33.325Z,96686.88
2022-11-23T20:03:35.492Z,96686.94
2022-11-23T20:08:38.026Z,96698.09
2022-11-23T20:13:40.216Z,96696.31
2022-11-23T20:18:43.407Z,96698.44
2022-11-23T20:23:47.103Z,96711.53
2022-11-23T20:28:53.364Z,96716.41
2022-11-23T20:33:56.735Z,96718.38
2022-11-23T20:39:01.593Z,96716.66
2022-11-23T20:44:10.994Z,96721.69
2022-11-23T20:49:13.068Z,96724.31
2022-11-23T20:54:14.665Z,96726.19
2022-11-23T20:59:16.288Z,96724.41
2022-11-23T21:04:17.922Z,96726.81
2022-11-23T21:09:19.557Z,96738.38
2022-11-23T21:14:24.441Z,96739.44
2022-11-23T21:19:34.517Z,96738.56
2022-11-23T21:24:37.276Z,96747.53
2022-11-23T21:29:39.141Z,96747.53
2022-11-23T21:34:40.716Z,96755.31
2022-11-23T21:39:43.193Z,96761.31
2022-11-23T21:44:47.086Z,96754.22
2022-11-23T21:49:48.653Z,96769.38
2022-11-23T21:54:50.237Z,96759.09
2022-11-23T21:59:51.816Z,96768.22
2022-11-23T22:04:54.687Z,96769.59
2022-11-23T22:09:56.319Z,96775.84
2022-11-23T22:14:58.001Z,96766.53
2022-11-23T22:19:59.671Z,96774.69
2022-11-23T22:25:01.384Z,96782.34
2022-11-23T22:30:03.275Z,96783.09
2022-11-23T22:35:05.333Z,96791.53
2022-11-23T22:40:07.789Z,96792.59
2022-11-23T22:45:09.439Z,96799.19
2022-11-23T22:50:11.502Z,96797.81
2022-11-23T22:55:13.165Z,96799.69
2022-11-23T23:00:15.170Z,96803.03
2022-11-23T23:05:16.788Z,96808.38
2022-11-23T23:10:18.414Z,96803.75
2022-11-23T23:15:21.231Z,96795.91
2022-11-23T23:20:22.904Z,96807.34
2022-11-23T23:25:24.553Z,96809.91
2022-11-23T23:30:26.525Z,96819.28
2022-11-23T23:35:28.296Z,96821.59
2022-11-23T23:40:29.918Z,96817.88
2022-11-23T23:45:31.591Z,96817.88
2022-11-23T23:50:33.253Z,96834.09
2022-11-23T23:55:34.963Z,96837.91
